createdAt,value
2022-11-03T00:01:43.691Z,9.70
2022-11-03T00:04:12.837Z,9.70
2022-11-03T00:06:41.315Z,9.60
2022-11-03T00:09:10.774Z,9.60
2022-11-03T00:11:39.544Z,9.60
2022-11-03T00:14:07.464Z,9.50
2022-11-03T00:16:35.821Z,9.50
2022-11-03T00:19:03.304Z,9.40
2022-11-03T00:21:31.204Z,9.40
2022-11-03T00:23:58.177Z,9.40
2022-11-03T00:26:28.117Z,9.40
2022-11-03T00:29:05.827Z,9.30
2022-11-03T00:31:35.427Z,9.30
2022-11-03T00:34:03.551Z,9.30
2022-11-03T00:36:33.841Z,9.30
2022-11-03T00:39:01.260Z,9.20
2022-11-03T00:41:28.807Z,9.20
2022-11-03T00:43:57.424Z,9.10
2022-11-03T00:46:25.968Z,9.10
2022-11-03T00:48:52.857Z,9.10
2022-11-03T00:51:23.559Z,9.10
2022-11-03T00:53:56.208Z,9.10
2022-11-03T00:56:29.446Z,9.00
2022-11-03T00:58:58.717Z,9.00
2022-11-03T01:01:31.465Z,9.00
2022-11-03T01:04:18.147Z,9.00
2022-11-03T01:06:51.089Z,9.00
2022-11-03T01:09:26.245Z,9.00
2022-11-03T01:12:16.530Z,8.90
2022-11-03T01:14:47.685Z,8.90
2022-11-03T01:17:18.080Z,8.90
2022-11-03T01:19:45.402Z,8.90
2022-11-03T01:22:13.057Z,8.90
2022-11-03T01:24:41.697Z,8.80
2022-11-03T01:27:14.178Z,8.80
2022-11-03T01:29:41.298Z,8.80
2022-11-03T01:32:08.858Z,8.80
2022-11-03T01:34:36.485Z,8.70
2022-11-03T01:37:04.239Z,8.80
2022-11-03T01:39:31.232Z,8.70
2022-11-03T01:41:58.095Z,8.70
2022-11-03T01:44:28.855Z,8.70
2022-11-03T01:47:03.088Z,8.70
2022-11-03T01:49:45.193Z,8.70
2022-11-03T01:52:24.020Z,8.60
2022-11-03T01:54:58.889Z,8.60
2022-11-03T01:57:33.760Z,8.60
2022-11-03T02:00:02.256Z,8.50
2022-11-03T02:02:29.201Z,8.50
2022-11-03T02:04:59.951Z,8.50
2022-11-03T02:07:57.566Z,8.40
2022-11-03T02:10:25.433Z,8.40
2022-11-03T02:12:53.864Z,8.30
2022-11-03T02:15:23.010Z,8.30
2022-11-03T02:17:51.921Z,8.20
2022-11-03T02:20:26.124Z,8.20
2022-11-03T02:23:11.832Z,8.20
2022-11-03T02:25:53.429Z,8.20
2022-11-03T02:28:26.851Z,8.10
2022-11-03T02:31:02.404Z,8.10
2022-11-03T02:33:40.646Z,8.10
2022-11-03T02:36:10.405Z,8.10
2022-11-03T02:38:47.559Z,8.00
2022-11-03T02:41:16.238Z,8.00
2022-11-03T02:43:45.308Z,7.90
2022-11-03T02:46:15.941Z,7.90
2022-11-03T02:48:43.007Z,7.90
2022-11-03T02:51:10.161Z,7.90
2022-11-03T02:53:43.243Z,7.80
2022-11-03T02:56:19.619Z,7.80
2022-11-03T02:59:16.605Z,7.80
2022-11-03T03:01:52.756Z,7.80
2022-11-03T03:04:31.521Z,7.80
2022-11-03T03:07:02.910Z,7.80
2022-11-03T03:09:36.010Z,7.70
2022-11-03T03:12:06.594Z,7.80
2022-11-03T03:14:41.833Z,7.70
2022-11-03T03:17:34.751Z,7.70
2022-11-03T03:20:14.422Z,7.70
2022-11-03T03:22:55.672Z,7.60
2022-11-03T03:25:22.668Z,7.60
2022-11-03T03:27:53.555Z,7.60
2022-11-03T03:30:20.450Z,7.60
2022-11-03T03:32:49.655Z,7.50
2022-11-03T03:35:22.878Z,7.50
2022-11-03T03:37:57.111Z,7.50
2022-11-03T03:40:28.868Z,7.50
2022-11-03T03:42:57.272Z,7.50
2022-11-03T03:45:25.999Z,7.50
2022-11-03T03:47:57.541Z,7.40
2022-11-03T03:50:26.998Z,7.40
2022-11-03T03:53:05.677Z,7.40
2022-11-03T03:55:41.043Z,7.40
2022-11-03T03:58:10.482Z,8.10
2022-11-03T04:00:40.115Z,7.40
2022-11-03T04:03:19.327Z,7.40
2022-11-03T04:05:46.916Z,7.30
2022-11-03T04:08:16.368Z,7.30
2022-11-03T04:11:04.979Z,7.30
2022-11-03T04:13:51.791Z,7.20
2022-11-03T04:16:37.363Z,7.20
2022-11-03T04:19:22.689Z,7.20
2022-11-03T04:22:08.181Z,7.20
2022-11-03T04:24:35.030Z,7.10
2022-11-03T04:27:28.388Z,7.10
2022-11-03T04:30:15.535Z,7.10
2022-11-03T04:32:49.836Z,7.00
2022-11-03T04:35:19.493Z,7.00
2022-11-03T04:37:54.298Z,7.00
2022-11-03T04:40:21.520Z,7.00
2022-11-03T04:42:48.630Z,7.00
2022-11-03T04:45:29.502Z,6.90
2022-11-03T04:47:58.669Z,6.90
2022-11-03T04:50:26.122Z,6.90
2022-11-03T04:52:57.029Z,6.90
2022-11-03T04:55:24.545Z,7.00
2022-11-03T04:58:00.282Z,6.90
2022-11-03T05:00:27.291Z,6.90
2022-11-03T05:02:56.169Z,6.90
2022-11-03T05:05:26.191Z,6.90
2022-11-03T05:07:56.597Z,6.90
2022-11-03T05:10:26.916Z,6.80
2022-11-03T05:12:57.644Z,6.80
2022-11-03T05:15:38.196Z,6.80
2022-11-03T05:18:26.646Z,6.80
2022-11-03T05:21:05.494Z,6.80
2022-11-03T05:23:40.506Z,6.70
2022-11-03T05:26:32.878Z,6.70
2022-11-03T05:29:18.491Z,6.60
2022-11-03T05:31:48.660Z,6.60
2022-11-03T05:34:31.199Z,6.60
2022-11-03T05:37:07.299Z,6.50
2022-11-03T05:39:41.356Z,6.50
2022-11-03T05:42:31.853Z,6.50
2022-11-03T05:45:00.391Z,6.40
2022-11-03T05:47:38.248Z,6.40
2022-11-03T05:50:21.352Z,6.40
2022-11-03T05:52:51.392Z,6.40
2022-11-03T05:55:27.111Z,6.40
2022-11-03T05:57:56.716Z,6.30
2022-11-03T06:00:31.447Z,6.40
2022-11-03T06:02:59.245Z,6.40
2022-11-03T06:05:27.218Z,6.40
2022-11-03T06:10:41.621Z,6.40
2022-11-03T06:13:16.566Z,6.40
2022-11-03T06:15:46.086Z,6.50
2022-11-03T06:18:24.653Z,6.50
2022-11-03T06:20:57.972Z,6.50
2022-11-03T06:23:26.031Z,6.60
2022-11-03T06:25:55.286Z,6.60
2022-11-03T06:28:29.458Z,6.70
2022-11-03T06:30:57.570Z,6.80
2022-11-03T06:33:33.924Z,6.80
2022-11-03T06:36:13.364Z,6.90
2022-11-03T06:38:40.456Z,7.00
2022-11-03T06:41:18.325Z,7.00
2022-11-03T06:43:45.302Z,7.10
2022-11-03T06:46:22.467Z,7.20
2022-11-03T06:48:50.190Z,7.30
2022-11-03T06:51:21.721Z,7.40
2022-11-03T06:53:50.229Z,7.40
2022-11-03T06:56:22.352Z,7.50
2022-11-03T06:58:52.507Z,7.60
2022-11-03T07:01:23.502Z,7.70
2022-11-03T07:03:56.467Z,7.80
2022-11-03T07:06:28.312Z,7.90
2022-11-03T07:09:04.987Z,7.90
2022-11-03T07:11:59.176Z,8.10
2022-11-03T07:14:28.980Z,8.10
2022-11-03T07:17:05.444Z,8.20
2022-11-03T07:19:40.236Z,8.30
2022-11-03T07:22:19.174Z,8.40
2022-11-03T07:24:48.561Z,8.50
2022-11-03T07:27:26.272Z,8.60
2022-11-03T07:30:09.814Z,8.70
2022-11-03T07:32:36.865Z,8.80
2022-11-03T07:35:22.210Z,8.90
2022-11-03T07:37:52.198Z,9.00
2022-11-03T07:40:23.601Z,9.10
2022-11-03T07:42:52.021Z,9.20
2022-11-03T07:45:37.311Z,9.30
2022-11-03T07:48:33.714Z,9.30
2022-11-03T07:51:14.631Z,9.40
2022-11-03T07:53:45.654Z,9.50
2022-11-03T07:56:29.144Z,9.60
2022-11-03T07:59:11.853Z,9.70
2022-11-03T08:01:45.487Z,9.80
2022-11-03T08:04:24.689Z,9.80
2022-11-03T08:06:52.396Z,9.90
2022-11-03T08:09:19.930Z,10.00
2022-11-03T08:11:46.812Z,10.00
2022-11-03T08:14:14.070Z,10.10
2022-11-03T08:16:41.146Z,10.10
2022-11-03T08:19:08.533Z,10.20
2022-11-03T08:21:35.723Z,10.30
2022-11-03T08:24:02.647Z,10.40
2022-11-03T08:26:29.699Z,10.40
2022-11-03T08:28:56.997Z,10.50
2022-11-03T08:31:23.952Z,10.50
2022-11-03T08:33:50.836Z,10.60
2022-11-03T08:36:18.075Z,10.60
2022-11-03T08:38:45.143Z,10.70
2022-11-03T08:41:12.354Z,10.70
2022-11-03T08:43:39.204Z,10.70
2022-11-03T08:46:16.703Z,10.80
2022-11-03T08:48:45.073Z,10.80
2022-11-03T08:51:13.823Z,10.80
2022-11-03T08:53:44.210Z,10.90
2022-11-03T08:56:16.968Z,11.00
2022-11-03T08:58:47.052Z,11.00
2022-11-03T09:01:14.809Z,11.10
2022-11-03T09:03:42.080Z,11.20
2022-11-03T09:06:09.475Z,11.30
2022-11-03T09:11:23.681Z,11.40
2022-11-03T09:13:51.645Z,11.50
2022-11-03T09:16:18.881Z,11.50
2022-11-03T09:18:45.952Z,11.50
2022-11-03T09:21:15.032Z,11.60
2022-11-03T09:23:42.354Z,11.60
2022-11-03T09:26:09.286Z,11.60
2022-11-03T09:28:36.377Z,11.70
2022-11-03T09:31:03.304Z,11.70
2022-11-03T09:33:30.586Z,11.70
2022-11-03T09:35:58.223Z,11.80
2022-11-03T09:38:25.617Z,11.80
2022-11-03T09:40:52.890Z,11.80
2022-11-03T09:43:20.078Z,11.90
2022-11-03T09:45:47.107Z,11.90
2022-11-03T09:48:14.638Z,11.90
2022-11-03T09:50:42.022Z,11.90
2022-11-03T09:53:12.820Z,12.00
2022-11-03T09:55:40.628Z,12.00
2022-11-03T09:58:16.284Z,12.10
2022-11-03T10:00:43.447Z,12.20
2022-11-03T10:03:12.857Z,12.20
2022-11-03T10:05:41.910Z,12.30
2022-11-03T10:08:32.241Z,12.30
2022-11-03T10:11:00.520Z,12.30
2022-11-03T10:13:43.373Z,12.30
2022-11-03T10:16:14.962Z,12.40
2022-11-03T10:18:42.723Z,12.40
2022-11-03T10:21:17.983Z,12.50
2022-11-03T10:23:45.037Z,12.60
2022-11-03T10:26:16.486Z,12.50
2022-11-03T10:29:05.014Z,12.60
2022-11-03T10:31:42.103Z,12.60
2022-11-03T10:34:27.612Z,12.60
2022-11-03T10:37:24.862Z,12.60
2022-11-03T10:39:56.742Z,12.70
2022-11-03T10:42:35.301Z,12.70
2022-11-03T10:45:20.464Z,12.80
2022-11-03T10:48:01.832Z,12.90
2022-11-03T10:50:28.996Z,12.90
2022-11-03T10:52:56.679Z,13.00
2022-11-03T10:55:25.617Z,13.00
2022-11-03T10:57:56.574Z,13.00
2022-11-03T11:00:24.340Z,13.10
2022-11-03T11:02:58.936Z,13.20
2022-11-03T11:05:26.727Z,13.20
2022-11-03T11:07:55.002Z,13.30
2022-11-03T11:10:27.518Z,13.40
2022-11-03T11:13:12.773Z,13.50
2022-11-03T11:15:43.729Z,13.60
2022-11-03T11:18:31.345Z,13.70
2022-11-03T11:21:21.739Z,13.90
2022-11-03T11:23:49.924Z,14.10
2022-11-03T11:26:24.465Z,14.20
2022-11-03T11:29:10.156Z,14.30
2022-11-03T11:31:37.961Z,14.40
2022-11-03T11:34:17.498Z,14.50
2022-11-03T11:37:05.770Z,14.60
2022-11-03T11:39:33.950Z,14.80
2022-11-03T11:42:21.006Z,15.00
2022-11-03T11:44:53.991Z,15.10
2022-11-03T11:47:36.732Z,15.20
2022-11-03T11:50:06.742Z,15.30
2022-11-03T11:52:38.597Z,15.30
2022-11-03T11:55:06.231Z,15.30
2022-11-03T11:57:35.578Z,15.30
2022-11-03T12:00:02.756Z,15.50
2022-11-03T12:02:31.203Z,15.50
2022-11-03T12:05:01.304Z,15.70
2022-11-03T12:07:35.308Z,15.80
2022-11-03T12:10:30.435Z,15.90
2022-11-03T12:12:59.888Z,15.80
2022-11-03T12:15:51.801Z,15.70
2022-11-03T12:18:40.672Z,15.80
2022-11-03T12:21:14.729Z,15.80
2022-11-03T12:23:46.495Z,15.90
2022-11-03T12:26:37.102Z,16.00
2022-11-03T12:29:06.030Z,16.00
2022-11-03T12:31:36.001Z,15.90
2022-11-03T12:34:04.187Z,15.90
2022-11-03T12:36:32.017Z,16.00
2022-11-03T12:38:59.434Z,16.10
2022-11-03T12:41:26.520Z,16.30
2022-11-03T12:43:54.368Z,16.40
2022-11-03T12:46:22.384Z,16.50
2022-11-03T12:48:49.670Z,16.70
2022-11-03T12:51:23.316Z,16.90
2022-11-03T12:53:50.710Z,17.10
2022-11-03T12:56:18.978Z,17.20
2022-11-03T12:58:46.165Z,17.30
2022-11-03T13:01:13.809Z,17.30
2022-11-03T13:03:41.033Z,17.50
2022-11-03T13:06:10.394Z,17.50
2022-11-03T13:08:38.143Z,17.60
2022-11-03T13:11:25.284Z,17.80
2022-11-03T13:13:53.299Z,18.00
2022-11-03T13:16:20.979Z,18.30
2022-11-03T13:18:48.438Z,18.50
2022-11-03T13:21:15.504Z,18.30
2022-11-03T13:23:42.703Z,18.10
2022-11-03T13:26:10.472Z,17.80
2022-11-03T13:28:37.547Z,17.50
2022-11-03T13:31:04.403Z,17.10
2022-11-03T13:33:31.612Z,16.80
2022-11-03T13:35:58.796Z,16.60
2022-11-03T13:38:25.847Z,16.30
2022-11-03T13:40:57.074Z,16.20
2022-11-03T13:43:25.281Z,16.10
2022-11-03T13:45:53.043Z,16.00
2022-11-03T13:51:10.611Z,15.80
2022-11-03T13:56:25.241Z,15.60
2022-11-03T14:01:39.414Z,15.40
2022-11-03T14:06:54.548Z,15.00
2022-11-03T14:09:21.728Z,14.70
2022-11-03T14:12:07.351Z,14.60
2022-11-03T14:14:34.517Z,14.40
2022-11-03T14:17:01.576Z,14.30
2022-11-03T14:19:36.488Z,14.20
2022-11-03T14:22:06.668Z,14.10
2022-11-03T14:24:33.843Z,13.90
2022-11-03T14:27:01.065Z,13.90
2022-11-03T14:29:28.110Z,13.80
2022-11-03T14:31:55.216Z,13.70
2022-11-03T14:34:22.097Z,13.60
2022-11-03T14:36:50.301Z,13.50
2022-11-03T14:39:17.309Z,13.40
2022-11-03T14:42:02.864Z,13.20
2022-11-03T14:44:38.360Z,13.10
2022-11-03T14:47:10.529Z,13.00
2022-11-03T14:49:37.896Z,12.80
2022-11-03T14:52:07.364Z,12.70
2022-11-03T14:54:36.179Z,12.60
2022-11-03T14:57:04.331Z,12.40
2022-11-03T14:59:31.617Z,12.30
2022-11-03T15:01:59.496Z,12.10
2022-11-03T15:04:27.143Z,12.00
2022-11-03T15:06:54.568Z,11.80
2022-11-03T15:09:21.686Z,11.70
2022-11-03T15:11:48.821Z,11.60
2022-11-03T15:14:16.059Z,11.50
2022-11-03T15:16:44.773Z,11.40
2022-11-03T15:19:11.942Z,11.30
2022-11-03T15:21:38.986Z,11.20
2022-11-03T15:26:53.468Z,11.00
2022-11-03T15:29:20.414Z,10.80
2022-11-03T15:31:48.520Z,10.70
2022-11-03T15:34:16.470Z,10.60
2022-11-03T15:36:43.552Z,10.50
2022-11-03T15:39:10.456Z,10.40
2022-11-03T15:41:37.313Z,10.30
2022-11-03T15:44:04.481Z,10.20
2022-11-03T15:46:31.591Z,10.20
2022-11-03T15:48:58.448Z,10.10
2022-11-03T15:51:25.564Z,10.00
2022-11-03T15:53:58.248Z,9.90
2022-11-03T15:56:27.488Z,9.80
2022-11-03T15:58:54.958Z,9.70
2022-11-03T16:01:21.999Z,9.60
2022-11-03T16:03:49.092Z,9.60
2022-11-03T16:06:16.368Z,9.50
2022-11-03T16:08:43.616Z,9.40
2022-11-03T16:11:10.453Z,9.40
2022-11-03T16:13:37.498Z,9.40
2022-11-03T16:16:04.861Z,9.30
2022-11-03T16:18:31.777Z,9.30
2022-11-03T16:20:59.102Z,9.30
2022-11-03T16:23:26.102Z,9.30
2022-11-03T16:25:53.988Z,9.30
2022-11-03T16:28:21.033Z,9.30
2022-11-03T16:30:53.005Z,9.20
2022-11-03T16:33:21.510Z,9.20
2022-11-03T16:35:48.980Z,9.20
2022-11-03T16:38:16.285Z,9.20
2022-11-03T16:40:43.815Z,9.10
2022-11-03T16:43:11.756Z,9.10
2022-11-03T16:45:38.769Z,9.10
2022-11-03T16:48:06.835Z,9.00
2022-11-03T16:50:34.755Z,9.00
2022-11-03T16:53:02.149Z,9.00
2022-11-03T16:55:29.039Z,8.90
2022-11-03T16:57:55.897Z,8.90
2022-11-03T17:00:24.305Z,8.90
2022-11-03T17:02:51.962Z,8.80
2022-11-03T17:05:20.945Z,8.80
2022-11-03T17:07:53.687Z,8.70
2022-11-03T17:10:22.035Z,8.70
2022-11-03T17:12:49.557Z,8.60
2022-11-03T17:15:17.400Z,8.60
2022-11-03T17:17:44.736Z,8.60
2022-11-03T17:20:13.445Z,8.60
2022-11-03T17:22:40.393Z,8.50
2022-11-03T17:25:09.628Z,8.50
2022-11-03T17:27:53.965Z,8.40
2022-11-03T17:30:26.391Z,8.40
2022-11-03T17:32:58.629Z,8.30
2022-11-03T17:35:47.840Z,8.30
2022-11-03T17:38:18.759Z,8.20
2022-11-03T17:40:47.920Z,8.20
2022-11-03T17:43:22.585Z,8.10
2022-11-03T17:45:49.774Z,8.10
2022-11-03T17:48:16.941Z,8.00
2022-11-03T17:50:49.713Z,7.90
2022-11-03T17:53:29.675Z,7.90
2022-11-03T17:56:27.621Z,7.80
2022-11-03T17:58:46.902Z,7.80
2022-11-03T18:01:22.629Z,7.80
2022-11-03T18:03:49.781Z,7.70
2022-11-03T18:06:19.422Z,7.60
2022-11-03T18:08:48.264Z,7.60
2022-11-03T18:11:39.495Z,7.60
2022-11-03T18:14:06.405Z,7.50
2022-11-03T18:16:34.653Z,7.50
2022-11-03T18:19:01.672Z,7.50
2022-11-03T18:21:29.895Z,7.50
2022-11-03T18:23:56.897Z,7.50
2022-11-03T18:26:25.920Z,7.50
2022-11-03T18:28:54.349Z,7.50
2022-11-03T18:31:33.741Z,7.50
2022-11-03T18:34:05.309Z,7.40
2022-11-03T18:36:35.108Z,7.40
2022-11-03T18:39:02.786Z,7.40
2022-11-03T18:41:39.085Z,7.50
2022-11-03T18:44:21.164Z,7.50
2022-11-03T18:46:49.023Z,7.50
2022-11-03T18:49:16.283Z,7.50
2022-11-03T18:51:49.721Z,7.50
2022-11-03T18:56:53.543Z,7.60
2022-11-03T18:59:33.397Z,7.60
2022-11-03T19:02:00.334Z,7.60
2022-11-03T19:04:27.463Z,7.60
2022-11-03T19:06:54.433Z,7.60
2022-11-03T19:09:25.004Z,7.70
2022-11-03T19:11:54.577Z,7.70
2022-11-03T19:14:29.046Z,7.80
2022-11-03T19:19:45.101Z,7.80
2022-11-03T19:22:14.265Z,7.80
2022-11-03T19:24:42.495Z,7.80
2022-11-03T19:27:20.363Z,7.80
2022-11-03T19:29:48.498Z,7.80
2022-11-03T19:32:23.596Z,7.90
2022-11-03T19:34:56.125Z,7.90
2022-11-03T19:37:22.979Z,7.90
2022-11-03T19:39:49.884Z,8.00
2022-11-03T19:42:28.136Z,8.00
2022-11-03T19:45:13.862Z,8.00
2022-11-03T19:48:22.675Z,8.00
2022-11-03T19:50:35.281Z,8.00
2022-11-03T19:53:05.570Z,8.00
2022-11-03T19:55:35.094Z,8.00
2022-11-03T19:58:13.058Z,8.00
2022-11-03T20:00:40.132Z,7.90
2022-11-03T20:03:07.135Z,7.90
2022-11-03T20:05:34.279Z,7.90
2022-11-03T20:08:03.804Z,7.90
2022-11-03T20:10:33.346Z,7.90
2022-11-03T20:13:03.643Z,7.90
2022-11-03T20:15:30.458Z,7.90
2022-11-03T20:17:57.470Z,7.90
2022-11-03T20:20:28.449Z,7.90
2022-11-03T20:22:58.640Z,7.90
2022-11-03T20:25:28.267Z,7.90
2022-11-03T20:27:57.408Z,7.90
2022-11-03T20:30:26.908Z,7.90
2022-11-03T20:32:54.644Z,7.90
2022-11-03T20:35:26.448Z,7.90
2022-11-03T20:37:57.836Z,7.90
2022-11-03T20:40:26.881Z,7.90
2022-11-03T20:43:00.081Z,7.90
2022-11-03T20:45:29.552Z,7.90
2022-11-03T20:47:56.878Z,7.90
2022-11-03T20:50:25.101Z,7.90
2022-11-03T20:52:53.162Z,7.90
2022-11-03T20:55:22.228Z,7.80
2022-11-03T20:57:50.626Z,7.80
2022-11-03T21:00:21.291Z,7.80
2022-11-03T21:02:49.666Z,7.80
2022-11-03T21:05:19.650Z,7.80
2022-11-03T21:07:47.299Z,7.80
2022-11-03T21:10:20.324Z,7.80
2022-11-03T21:12:48.246Z,7.70
2022-11-03T21:15:48.128Z,7.70
2022-11-03T21:18:43.400Z,7.70
2022-11-03T21:21:11.429Z,7.70
2022-11-03T21:23:38.929Z,7.70
2022-11-03T21:26:06.491Z,7.70
2022-11-03T21:28:33.678Z,7.70
2022-11-03T21:31:00.875Z,7.70
2022-11-03T21:33:27.981Z,7.70
2022-11-03T21:35:55.084Z,7.60
2022-11-03T21:38:21.963Z,7.60
2022-11-03T21:40:56.127Z,7.60
2022-11-03T21:43:41.919Z,7.60
2022-11-03T21:46:10.998Z,7.60
2022-11-03T21:48:58.111Z,7.60
2022-11-03T21:51:25.159Z,7.60
2022-11-03T21:53:52.128Z,7.50
2022-11-03T21:56:19.018Z,7.50
2022-11-03T21:58:46.138Z,7.50
2022-11-03T22:01:13.110Z,7.40
2022-11-03T22:03:40.240Z,7.40
2022-11-03T22:06:09.491Z,7.40
2022-11-03T22:08:37.363Z,7.40
2022-11-03T22:11:22.514Z,7.40
2022-11-03T22:13:49.362Z,7.40
2022-11-03T22:16:35.365Z,7.40
2022-11-03T22:19:21.684Z,7.40
2022-11-03T22:22:06.959Z,7.40
2022-11-03T22:24:52.641Z,7.40
2022-11-03T22:27:20.117Z,7.40
2022-11-03T22:30:05.980Z,7.40
2022-11-03T22:32:33.242Z,7.40
2022-11-03T22:35:19.885Z,7.40
2022-11-03T22:37:46.765Z,7.40
2022-11-03T22:40:32.577Z,7.40
2022-11-03T22:43:40.850Z,7.40
2022-11-03T22:46:08.899Z,7.40
2022-11-03T22:48:36.299Z,7.40
2022-11-03T22:51:07.643Z,7.40
2022-11-03T22:53:54.949Z,7.40
2022-11-03T22:56:23.530Z,7.40
2022-11-03T22:58:52.728Z,7.40
2022-11-03T23:01:22.432Z,7.40
2022-11-03T23:03:50.126Z,7.40
2022-11-03T23:06:20.030Z,7.40
2022-11-03T23:08:49.044Z,7.40
2022-11-03T23:11:19.422Z,7.30
2022-11-03T23:13:58.360Z,7.40
2022-11-03T23:16:27.710Z,7.40
2022-11-03T23:19:14.074Z,7.40
2022-11-03T23:21:41.064Z,7.40
2022-11-03T23:24:26.575Z,7.50
2022-11-03T23:26:53.477Z,7.50
2022-11-03T23:29:20.653Z,7.50
2022-11-03T23:31:48.053Z,7.50
2022-11-03T23:34:15.058Z,7.60
2022-11-03T23:36:43.344Z,7.60
2022-11-03T23:39:17.292Z,7.60
2022-11-03T23:41:45.891Z,7.70
2022-11-03T23:44:14.750Z,7.70
2022-11-03T23:47:01.451Z,7.80
2022-11-03T23:49:28.933Z,7.80
2022-11-03T23:51:56.010Z,7.90
2022-11-03T23:54:23.155Z,8.00
2022-11-03T23:57:09.141Z,8.00
2022-11-03T23:59:36.294Z,8.00
